Terminal Aerodrome Forecast
Issued by NWS

Home | Current Version | Previous Version | Text Only | Print | Product List | Glossary On
Versions: 1 2 3 4 5 6 7 8 9 10 11 12 13 14 15 16 17 18 19 20 21 22 23 24 25 26 27 28 29
000
FTUS45 KREV 221720
TAFTRK
TAF
KTRK 221720Z 2218/2318 VRB03KT P6SM FEW005
     FM221900 35005KT P6SM SCT180
     FM230200 VRB03KT P6SM SKC
     FM230700 00000KT 6SM BCFG FEW005
     FM231000 00000KT 1/2SM FZFG BKN001=

USA.gov is the U.S. government's official web portal to all federal, state and local government web resources and services.